sensor_id;sensor_type;location;lat;lon;timestamp;temperature;humidity
6256;DHT22;3161;48.794;9.784;2023-07-31T00:00:46;15.20;99.90
6256;DHT22;3161;48.794;9.784;2023-07-31T00:03:14;15.20;99.90
6256;DHT22;3161;48.794;9.784;2023-07-31T00:05:41;15.20;99.90
6256;DHT22;3161;48.794;9.784;2023-07-31T00:08:09;15.20;99.90
6256;DHT22;3161;48.794;9.784;2023-07-31T00:10:37;15.20;99.90
6256;DHT22;3161;48.794;9.784;2023-07-31T00:13:04;15.10;99.90
6256;DHT22;3161;48.794;9.784;2023-07-31T00:15:32;15.10;99.90
6256;DHT22;3161;48.794;9.784;2023-07-31T00:17:59;15.10;99.90
6256;DHT22;3161;48.794;9.784;2023-07-31T00:20:28;15.10;99.90
6256;DHT22;3161;48.794;9.784;2023-07-31T00:22:55;15.10;99.90
6256;DHT22;3161;48.794;9.784;2023-07-31T00:25:23;15.10;99.90
6256;DHT22;3161;48.794;9.784;2023-07-31T00:27:50;15.10;99.90
6256;DHT22;3161;48.794;9.784;2023-07-31T00:30:18;15.10;99.90
6256;DHT22;3161;48.794;9.784;2023-07-31T00:32:45;15.00;99.90
6256;DHT22;3161;48.794;9.784;2023-07-31T00:35:13;15.00;99.90
6256;DHT22;3161;48.794;9.784;2023-07-31T00:37:40;15.00;99.90
6256;DHT22;3161;48.794;9.784;2023-07-31T00:40:09;15.00;99.90
6256;DHT22;3161;48.794;9.784;2023-07-31T00:42:36;14.90;99.90
6256;DHT22;3161;48.794;9.784;2023-07-31T00:45:04;14.90;99.90
6256;DHT22;3161;48.794;9.784;2023-07-31T00:47:32;14.90;99.90
6256;DHT22;3161;48.794;9.784;2023-07-31T00:50:01;14.80;99.90
6256;DHT22;3161;48.794;9.784;2023-07-31T00:52:28;14.80;99.90
6256;DHT22;3161;48.794;9.784;2023-07-31T00:54:56;14.70;99.90
6256;DHT22;3161;48.794;9.784;2023-07-31T00:57:24;14.70;99.90
6256;DHT22;3161;48.794;9.784;2023-07-31T00:59:51;14.70;99.90
6256;DHT22;3161;48.794;9.784;2023-07-31T01:02:19;14.60;99.90
6256;DHT22;3161;48.794;9.784;2023-07-31T01:04:47;14.60;99.90
6256;DHT22;3161;48.794;9.784;2023-07-31T01:07:33;14.50;99.90
6256;DHT22;3161;48.794;9.784;2023-07-31T01:10:18;14.60;99.90
6256;DHT22;3161;48.794;9.784;2023-07-31T01:12:46;14.50;99.90
6256;DHT22;3161;48.794;9.784;2023-07-31T01:15:14;14.50;99.90
6256;DHT22;3161;48.794;9.784;2023-07-31T01:17:44;14.50;99.90
6256;DHT22;3161;48.794;9.784;2023-07-31T01:20:26;14.50;99.90
6256;DHT22;3161;48.794;9.784;2023-07-31T01:28:20;14.50;99.90
6256;DHT22;3161;48.794;9.784;2023-07-31T01:30:49;14.50;99.90
6256;DHT22;3161;48.794;9.784;2023-07-31T01:33:17;14.40;99.90
6256;DHT22;3161;48.794;9.784;2023-07-31T01:35:45;14.40;99.90
6256;DHT22;3161;48.794;9.784;2023-07-31T01:38:13;14.40;99.90
6256;DHT22;3161;48.794;9.784;2023-07-31T01:40:42;14.40;99.90
6256;DHT22;3161;48.794;9.784;2023-07-31T01:43:10;14.40;99.90
6256;DHT22;3161;48.794;9.784;2023-07-31T01:45:37;14.40;99.90
6256;DHT22;3161;48.794;9.784;2023-07-31T01:48:05;14.40;99.90
6256;DHT22;3161;48.794;9.784;2023-07-31T01:50:32;14.40;99.90
6256;DHT22;3161;48.794;9.784;2023-07-31T01:53:00;14.40;99.90
6256;DHT22;3161;48.794;9.784;2023-07-31T01:55:27;14.30;99.90
6256;DHT22;3161;48.794;9.784;2023-07-31T01:57:55;14.30;99.90
6256;DHT22;3161;48.794;9.784;2023-07-31T02:00:22;14.20;99.90
6256;DHT22;3161;48.794;9.784;2023-07-31T02:02:50;14.20;99.90
6256;DHT22;3161;48.794;9.784;2023-07-31T02:05:17;14.20;99.90
6256;DHT22;3161;48.794;9.784;2023-07-31T02:07:45;14.20;99.90
6256;DHT22;3161;48.794;9.784;2023-07-31T02:10:12;14.10;99.90
6256;DHT22;3161;48.794;9.784;2023-07-31T02:12:40;14.10;99.90
6256;DHT22;3161;48.794;9.784;2023-07-31T02:15:07;14.10;99.90
6256;DHT22;3161;48.794;9.784;2023-07-31T02:17:35;14.10;99.90
6256;DHT22;3161;48.794;9.784;2023-07-31T02:20:03;14.00;99.90
6256;DHT22;3161;48.794;9.784;2023-07-31T02:22:31;14.00;99.90
6256;DHT22;3161;48.794;9.784;2023-07-31T02:24:58;14.00;99.90
6256;DHT22;3161;48.794;9.784;2023-07-31T02:27:26;14.00;99.90
6256;DHT22;3161;48.794;9.784;2023-07-31T02:29:54;14.00;99.90
6256;DHT22;3161;48.794;9.784;2023-07-31T02:32:21;13.90;99.90
6256;DHT22;3161;48.794;9.784;2023-07-31T02:34:49;13.90;99.90
6256;DHT22;3161;48.794;9.784;2023-07-31T02:37:16;13.90;99.90
6256;DHT22;3161;48.794;9.784;2023-07-31T02:39:44;13.90;99.90
6256;DHT22;3161;48.794;9.784;2023-07-31T02:42:12;13.90;99.90
6256;DHT22;3161;48.794;9.784;2023-07-31T02:44:40;13.80;99.90
6256;DHT22;3161;48.794;9.784;2023-07-31T02:47:07;13.80;99.90
6256;DHT22;3161;48.794;9.784;2023-07-31T02:49:35;13.80;99.90
6256;DHT22;3161;48.794;9.784;2023-07-31T02:54:59;13.80;99.90
6256;DHT22;3161;48.794;9.784;2023-07-31T02:57:26;13.80;99.90
6256;DHT22;3161;48.794;9.784;2023-07-31T02:59:54;13.70;99.90
6256;DHT22;3161;48.794;9.784;2023-07-31T03:02:21;13.70;99.90
6256;DHT22;3161;48.794;9.784;2023-07-31T03:04:49;13.70;99.90
6256;DHT22;3161;48.794;9.784;2023-07-31T03:07:16;13.70;99.90
6256;DHT22;3161;48.794;9.784;2023-07-31T03:09:43;13.70;99.90
6256;DHT22;3161;48.794;9.784;2023-07-31T03:12:11;13.70;99.90
6256;DHT22;3161;48.794;9.784;2023-07-31T03:14:38;13.70;99.90
6256;DHT22;3161;48.794;9.784;2023-07-31T03:17:07;13.70;99.90
6256;DHT22;3161;48.794;9.784;2023-07-31T03:19:35;13.70;99.90
6256;DHT22;3161;48.794;9.784;2023-07-31T03:22:02;13.70;99.90
6256;DHT22;3161;48.794;9.784;2023-07-31T03:24:30;13.70;99.90
6256;DHT22;3161;48.794;9.784;2023-07-31T03:26:57;13.70;99.90
6256;DHT22;3161;48.794;9.784;2023-07-31T03:29:25;13.70;99.90
6256;DHT22;3161;48.794;9.784;2023-07-31T03:31:52;13.70;99.90
6256;DHT22;3161;48.794;9.784;2023-07-31T03:37:15;13.70;99.90
6256;DHT22;3161;48.794;9.784;2023-07-31T03:39:43;13.60;99.90
6256;DHT22;3161;48.794;9.784;2023-07-31T03:42:10;13.60;99.90
6256;DHT22;3161;48.794;9.784;2023-07-31T03:44:38;13.60;99.90
6256;DHT22;3161;48.794;9.784;2023-07-31T03:47:05;13.50;99.90
6256;DHT22;3161;48.794;9.784;2023-07-31T03:49:33;13.50;99.90
6256;DHT22;3161;48.794;9.784;2023-07-31T03:52:00;13.50;99.90
6256;DHT22;3161;48.794;9.784;2023-07-31T03:54:28;13.50;99.90
6256;DHT22;3161;48.794;9.784;2023-07-31T03:56:55;13.50;99.90
6256;DHT22;3161;48.794;9.784;2023-07-31T03:59:23;13.50;99.90
6256;DHT22;3161;48.794;9.784;2023-07-31T04:01:50;13.50;99.90
6256;DHT22;3161;48.794;9.784;2023-07-31T04:04:18;13.50;99.90
6256;DHT22;3161;48.794;9.784;2023-07-31T04:06:45;13.50;99.90
6256;DHT22;3161;48.794;9.784;2023-07-31T04:09:13;13.60;99.90
6256;DHT22;3161;48.794;9.784;2023-07-31T04:11:40;13.60;99.90
6256;DHT22;3161;48.794;9.784;2023-07-31T04:14:09;13.60;99.90
6256;DHT22;3161;48.794;9.784;2023-07-31T04:16:36;13.60;99.90
6256;DHT22;3161;48.794;9.784;2023-07-31T04:19:04;13.60;99.90
6256;DHT22;3161;48.794;9.784;2023-07-31T04:21:32;13.60;99.90
6256;DHT22;3161;48.794;9.784;2023-07-31T04:23:59;13.60;99.90
6256;DHT22;3161;48.794;9.784;2023-07-31T04:26:27;13.60;99.90
6256;DHT22;3161;48.794;9.784;2023-07-31T04:28:54;13.60;99.90
6256;DHT22;3161;48.794;9.784;2023-07-31T04:31:22;13.60;99.90
6256;DHT22;3161;48.794;9.784;2023-07-31T04:33:49;13.60;99.90
6256;DHT22;3161;48.794;9.784;2023-07-31T04:36:17;13.70;99.90
6256;DHT22;3161;48.794;9.784;2023-07-31T04:38:44;13.60;99.90
6256;DHT22;3161;48.794;9.784;2023-07-31T04:41:12;13.70;99.90
6256;DHT22;3161;48.794;9.784;2023-07-31T04:43:39;13.70;99.90
6256;DHT22;3161;48.794;9.784;2023-07-31T04:46:07;13.70;99.90
6256;DHT22;3161;48.794;9.784;2023-07-31T04:48:35;13.80;99.90
6256;DHT22;3161;48.794;9.784;2023-07-31T04:51:02;13.80;99.90
6256;DHT22;3161;48.794;9.784;2023-07-31T04:53:30;13.80;99.90
6256;DHT22;3161;48.794;9.784;2023-07-31T04:55:57;13.90;99.90
6256;DHT22;3161;48.794;9.784;2023-07-31T04:58:25;13.90;99.90
6256;DHT22;3161;48.794;9.784;2023-07-31T05:00:52;14.00;99.90
6256;DHT22;3161;48.794;9.784;2023-07-31T05:03:20;14.00;99.90
6256;DHT22;3161;48.794;9.784;2023-07-31T05:05:47;14.00;99.90
6256;DHT22;3161;48.794;9.784;2023-07-31T05:08:15;14.10;99.90
6256;DHT22;3161;48.794;9.784;2023-07-31T05:10:44;14.10;99.90
6256;DHT22;3161;48.794;9.784;2023-07-31T05:13:12;14.10;99.90
6256;DHT22;3161;48.794;9.784;2023-07-31T05:15:40;14.20;99.90
6256;DHT22;3161;48.794;9.784;2023-07-31T05:18:08;14.20;99.90
6256;DHT22;3161;48.794;9.784;2023-07-31T05:20:35;14.20;99.90
6256;DHT22;3161;48.794;9.784;2023-07-31T05:23:03;14.20;99.90
6256;DHT22;3161;48.794;9.784;2023-07-31T05:25:30;14.30;99.90
6256;DHT22;3161;48.794;9.784;2023-07-31T05:27:58;14.30;99.90
6256;DHT22;3161;48.794;9.784;2023-07-31T05:30:25;14.40;99.90
6256;DHT22;3161;48.794;9.784;2023-07-31T05:32:53;14.40;99.90
6256;DHT22;3161;48.794;9.784;2023-07-31T05:35:20;14.50;99.90
6256;DHT22;3161;48.794;9.784;2023-07-31T05:37:48;14.50;99.90
6256;DHT22;3161;48.794;9.784;2023-07-31T05:40:16;14.60;99.90
6256;DHT22;3161;48.794;9.784;2023-07-31T05:42:43;14.60;99.90
6256;DHT22;3161;48.794;9.784;2023-07-31T05:45:11;14.70;99.90
6256;DHT22;3161;48.794;9.784;2023-07-31T05:47:40;14.70;99.90
6256;DHT22;3161;48.794;9.784;2023-07-31T05:50:08;14.80;99.90
6256;DHT22;3161;48.794;9.784;2023-07-31T05:52:35;14.90;99.90
6256;DHT22;3161;48.794;9.784;2023-07-31T05:55:03;14.90;99.90
6256;DHT22;3161;48.794;9.784;2023-07-31T05:57:31;15.00;99.90
6256;DHT22;3161;48.794;9.784;2023-07-31T05:59:58;15.10;99.90
6256;DHT22;3161;48.794;9.784;2023-07-31T06:02:26;15.20;99.90
6256;DHT22;3161;48.794;9.784;2023-07-31T06:04:53;15.20;99.90
6256;DHT22;3161;48.794;9.784;2023-07-31T06:07:21;15.20;99.90
6256;DHT22;3161;48.794;9.784;2023-07-31T06:09:48;15.30;99.90
6256;DHT22;3161;48.794;9.784;2023-07-31T06:12:16;15.40;99.90
6256;DHT22;3161;48.794;9.784;2023-07-31T06:14:45;15.50;99.90
6256;DHT22;3161;48.794;9.784;2023-07-31T06:17:12;15.60;99.90
6256;DHT22;3161;48.794;9.784;2023-07-31T06:19:40;15.70;99.90
6256;DHT22;3161;48.794;9.784;2023-07-31T06:22:07;15.80;99.90
6256;DHT22;3161;48.794;9.784;2023-07-31T06:24:35;15.90;99.90
6256;DHT22;3161;48.794;9.784;2023-07-31T06:27:02;16.10;99.90
6256;DHT22;3161;48.794;9.784;2023-07-31T06:29:30;16.20;99.90
6256;DHT22;3161;48.794;9.784;2023-07-31T06:31:58;16.40;99.90
6256;DHT22;3161;48.794;9.784;2023-07-31T06:34:26;16.50;99.90
6256;DHT22;3161;48.794;9.784;2023-07-31T06:36:55;16.70;99.90
6256;DHT22;3161;48.794;9.784;2023-07-31T06:39:23;16.90;99.90
6256;DHT22;3161;48.794;9.784;2023-07-31T06:41:50;17.00;99.90
6256;DHT22;3161;48.794;9.784;2023-07-31T06:44:18;17.20;99.90
6256;DHT22;3161;48.794;9.784;2023-07-31T06:46:45;17.20;99.90
6256;DHT22;3161;48.794;9.784;2023-07-31T06:49:13;17.40;99.90
6256;DHT22;3161;48.794;9.784;2023-07-31T06:51:42;17.50;99.90
6256;DHT22;3161;48.794;9.784;2023-07-31T06:54:10;17.70;99.90
6256;DHT22;3161;48.794;9.784;2023-07-31T06:56:37;17.90;99.90
6256;DHT22;3161;48.794;9.784;2023-07-31T06:59:05;18.20;99.90
6256;DHT22;3161;48.794;9.784;2023-07-31T07:04:28;18.70;99.90
6256;DHT22;3161;48.794;9.784;2023-07-31T07:06:56;18.90;99.90
6256;DHT22;3161;48.794;9.784;2023-07-31T07:09:23;19.00;99.90
6256;DHT22;3161;48.794;9.784;2023-07-31T07:11:51;19.00;99.90
6256;DHT22;3161;48.794;9.784;2023-07-31T07:14:18;19.00;99.90
6256;DHT22;3161;48.794;9.784;2023-07-31T07:16:50;19.00;99.90
6256;DHT22;3161;48.794;9.784;2023-07-31T07:19:16;18.90;99.90
6256;DHT22;3161;48.794;9.784;2023-07-31T07:21:44;18.90;99.90
6256;DHT22;3161;48.794;9.784;2023-07-31T07:24:11;19.00;99.90
6256;DHT22;3161;48.794;9.784;2023-07-31T07:26:39;19.20;99.90
6256;DHT22;3161;48.794;9.784;2023-07-31T07:29:06;19.40;99.90
6256;DHT22;3161;48.794;9.784;2023-07-31T07:31:34;19.70;99.90
6256;DHT22;3161;48.794;9.784;2023-07-31T07:34:02;19.90;99.90
6256;DHT22;3161;48.794;9.784;2023-07-31T07:36:30;20.10;99.90
6256;DHT22;3161;48.794;9.784;2023-07-31T07:38:59;20.10;99.90
6256;DHT22;3161;48.794;9.784;2023-07-31T07:41:26;20.20;99.90
6256;DHT22;3161;48.794;9.784;2023-07-31T07:43:54;20.20;99.90
6256;DHT22;3161;48.794;9.784;2023-07-31T07:46:21;20.20;99.90
6256;DHT22;3161;48.794;9.784;2023-07-31T07:48:49;20.30;99.90
6256;DHT22;3161;48.794;9.784;2023-07-31T07:51:17;20.30;99.90
6256;DHT22;3161;48.794;9.784;2023-07-31T07:53:44;20.40;99.90
6256;DHT22;3161;48.794;9.784;2023-07-31T07:56:12;20.50;99.90
6256;DHT22;3161;48.794;9.784;2023-07-31T07:58:39;20.60;99.90
6256;DHT22;3161;48.794;9.784;2023-07-31T08:01:07;20.60;99.90
6256;DHT22;3161;48.794;9.784;2023-07-31T08:03:34;20.70;99.90
6256;DHT22;3161;48.794;9.784;2023-07-31T08:06:02;20.70;99.90
6256;DHT22;3161;48.794;9.784;2023-07-31T08:08:29;20.80;99.90
6256;DHT22;3161;48.794;9.784;2023-07-31T08:10:57;20.90;99.90
6256;DHT22;3161;48.794;9.784;2023-07-31T08:13:24;21.10;99.90
6256;DHT22;3161;48.794;9.784;2023-07-31T08:15:52;21.30;99.90
6256;DHT22;3161;48.794;9.784;2023-07-31T08:18:20;21.60;99.90
6256;DHT22;3161;48.794;9.784;2023-07-31T08:20:47;21.70;99.90
6256;DHT22;3161;48.794;9.784;2023-07-31T08:23:15;22.00;99.90
6256;DHT22;3161;48.794;9.784;2023-07-31T08:25:43;22.20;99.90
6256;DHT22;3161;48.794;9.784;2023-07-31T08:28:10;22.40;99.90
6256;DHT22;3161;48.794;9.784;2023-07-31T08:30:38;22.60;99.90
6256;DHT22;3161;48.794;9.784;2023-07-31T08:33:06;22.70;99.90
6256;DHT22;3161;48.794;9.784;2023-07-31T08:35:34;23.00;99.90
6256;DHT22;3161;48.794;9.784;2023-07-31T08:38:01;23.20;99.90
6256;DHT22;3161;48.794;9.784;2023-07-31T08:40:29;23.20;99.90
6256;DHT22;3161;48.794;9.784;2023-07-31T08:42:56;23.20;99.90
6256;DHT22;3161;48.794;9.784;2023-07-31T08:45:26;23.30;99.90
6256;DHT22;3161;48.794;9.784;2023-07-31T08:47:54;23.40;99.90
6256;DHT22;3161;48.794;9.784;2023-07-31T08:50:22;23.50;99.90
6256;DHT22;3161;48.794;9.784;2023-07-31T08:52:51;23.70;99.90
6256;DHT22;3161;48.794;9.784;2023-07-31T08:55:19;23.80;99.90
6256;DHT22;3161;48.794;9.784;2023-07-31T08:57:53;23.90;99.90
6256;DHT22;3161;48.794;9.784;2023-07-31T09:00:21;24.50;99.90
6256;DHT22;3161;48.794;9.784;2023-07-31T09:05:41;24.10;99.90
6256;DHT22;3161;48.794;9.784;2023-07-31T09:08:10;24.10;99.90
6256;DHT22;3161;48.794;9.784;2023-07-31T09:10:42;24.10;99.00
6256;DHT22;3161;48.794;9.784;2023-07-31T09:13:10;24.00;99.10
6256;DHT22;3161;48.794;9.784;2023-07-31T09:15:38;23.90;98.40
6256;DHT22;3161;48.794;9.784;2023-07-31T09:18:07;23.90;98.40
6256;DHT22;3161;48.794;9.784;2023-07-31T09:20:36;23.80;98.00
6256;DHT22;3161;48.794;9.784;2023-07-31T09:23:11;23.70;98.50
6256;DHT22;3161;48.794;9.784;2023-07-31T09:25:43;23.70;99.50
6256;DHT22;3161;48.794;9.784;2023-07-31T09:28:10;23.80;98.00
6256;DHT22;3161;48.794;9.784;2023-07-31T09:30:49;23.80;98.60
6256;DHT22;3161;48.794;9.784;2023-07-31T09:33:17;23.70;97.20
6256;DHT22;3161;48.794;9.784;2023-07-31T09:35:46;23.70;97.80
6256;DHT22;3161;48.794;9.784;2023-07-31T09:38:15;23.70;99.10
6256;DHT22;3161;48.794;9.784;2023-07-31T09:40:48;23.70;99.40
6256;DHT22;3161;48.794;9.784;2023-07-31T09:43:21;23.80;97.70
6256;DHT22;3161;48.794;9.784;2023-07-31T09:45:52;23.90;97.20
6256;DHT22;3161;48.794;9.784;2023-07-31T09:48:18;24.00;98.80
6256;DHT22;3161;48.794;9.784;2023-07-31T09:50:48;24.00;96.80
6256;DHT22;3161;48.794;9.784;2023-07-31T09:53:16;24.10;95.90
6256;DHT22;3161;48.794;9.784;2023-07-31T09:55:44;24.00;96.50
6256;DHT22;3161;48.794;9.784;2023-07-31T09:58:13;24.00;97.20
6256;DHT22;3161;48.794;9.784;2023-07-31T10:00:40;24.00;95.60
6256;DHT22;3161;48.794;9.784;2023-07-31T10:03:10;24.00;96.60
6256;DHT22;3161;48.794;9.784;2023-07-31T10:05:43;24.00;95.70
6256;DHT22;3161;48.794;9.784;2023-07-31T10:08:13;24.00;94.80
6256;DHT22;3161;48.794;9.784;2023-07-31T10:10:45;23.90;95.30
6256;DHT22;3161;48.794;9.784;2023-07-31T10:13:14;24.00;95.30
6256;DHT22;3161;48.794;9.784;2023-07-31T10:15:43;23.90;96.50
6256;DHT22;3161;48.794;9.784;2023-07-31T10:18:12;24.00;96.20
6256;DHT22;3161;48.794;9.784;2023-07-31T10:20:40;24.00;96.00
6256;DHT22;3161;48.794;9.784;2023-07-31T10:23:08;24.00;94.90
6256;DHT22;3161;48.794;9.784;2023-07-31T10:25:37;24.00;96.40
6256;DHT22;3161;48.794;9.784;2023-07-31T10:28:06;24.10;95.70
6256;DHT22;3161;48.794;9.784;2023-07-31T10:30:34;24.20;96.00
6256;DHT22;3161;48.794;9.784;2023-07-31T10:33:03;24.20;96.10
6256;DHT22;3161;48.794;9.784;2023-07-31T10:35:32;24.30;95.60
6256;DHT22;3161;48.794;9.784;2023-07-31T10:38:10;24.30;93.70
6256;DHT22;3161;48.794;9.784;2023-07-31T10:40:40;24.20;93.60
6256;DHT22;3161;48.794;9.784;2023-07-31T10:43:09;24.10;94.60
6256;DHT22;3161;48.794;9.784;2023-07-31T10:45:39;24.10;95.10
6256;DHT22;3161;48.794;9.784;2023-07-31T10:48:12;24.20;95.50
6256;DHT22;3161;48.794;9.784;2023-07-31T10:50:57;24.20;94.70
6256;DHT22;3161;48.794;9.784;2023-07-31T10:53:32;24.30;96.20
6256;DHT22;3161;48.794;9.784;2023-07-31T10:56:06;24.30;95.30
6256;DHT22;3161;48.794;9.784;2023-07-31T10:58:31;24.40;95.10
6256;DHT22;3161;48.794;9.784;2023-07-31T11:01:01;24.40;94.50
6256;DHT22;3161;48.794;9.784;2023-07-31T11:03:49;24.40;94.20
6256;DHT22;3161;48.794;9.784;2023-07-31T11:06:19;24.30;94.50
6256;DHT22;3161;48.794;9.784;2023-07-31T11:08:48;24.30;94.60
6256;DHT22;3161;48.794;9.784;2023-07-31T11:11:18;24.40;93.30
6256;DHT22;3161;48.794;9.784;2023-07-31T11:13:53;24.40;93.90
6256;DHT22;3161;48.794;9.784;2023-07-31T11:16:26;24.50;92.90
6256;DHT22;3161;48.794;9.784;2023-07-31T11:18:52;24.60;92.60
6256;DHT22;3161;48.794;9.784;2023-07-31T11:21:22;24.70;92.00
6256;DHT22;3161;48.794;9.784;2023-07-31T11:23:52;24.80;92.10
6256;DHT22;3161;48.794;9.784;2023-07-31T11:26:20;24.80;93.70
6256;DHT22;3161;48.794;9.784;2023-07-31T11:28:48;24.90;93.70
6256;DHT22;3161;48.794;9.784;2023-07-31T11:31:19;25.10;93.30
6256;DHT22;3161;48.794;9.784;2023-07-31T11:33:47;25.30;91.60
6256;DHT22;3161;48.794;9.784;2023-07-31T11:36:18;25.40;91.60
6256;DHT22;3161;48.794;9.784;2023-07-31T11:38:47;25.30;91.10
6256;DHT22;3161;48.794;9.784;2023-07-31T11:41:15;25.30;91.60
6256;DHT22;3161;48.794;9.784;2023-07-31T11:43:43;25.20;91.50
6256;DHT22;3161;48.794;9.784;2023-07-31T11:46:11;25.10;91.90
6256;DHT22;3161;48.794;9.784;2023-07-31T11:48:39;25.00;91.50
6256;DHT22;3161;48.794;9.784;2023-07-31T11:51:09;24.80;93.00
6256;DHT22;3161;48.794;9.784;2023-07-31T11:56:10;24.90;92.50
6256;DHT22;3161;48.794;9.784;2023-07-31T11:58:39;25.00;94.00
6256;DHT22;3161;48.794;9.784;2023-07-31T12:01:08;25.10;94.80
6256;DHT22;3161;48.794;9.784;2023-07-31T12:03:37;25.30;91.70
6256;DHT22;3161;48.794;9.784;2023-07-31T12:06:05;25.50;92.20
6256;DHT22;3161;48.794;9.784;2023-07-31T12:08:33;25.60;90.70
6256;DHT22;3161;48.794;9.784;2023-07-31T12:11:08;25.60;91.40
6256;DHT22;3161;48.794;9.784;2023-07-31T12:13:43;25.60;91.90
6256;DHT22;3161;48.794;9.784;2023-07-31T12:16:12;25.70;91.10
6256;DHT22;3161;48.794;9.784;2023-07-31T12:18:40;25.90;90.20
6256;DHT22;3161;48.794;9.784;2023-07-31T12:21:09;25.90;90.50
6256;DHT22;3161;48.794;9.784;2023-07-31T12:23:38;25.90;90.30
6256;DHT22;3161;48.794;9.784;2023-07-31T12:26:10;25.80;90.70
6256;DHT22;3161;48.794;9.784;2023-07-31T12:28:48;25.50;90.10
6256;DHT22;3161;48.794;9.784;2023-07-31T12:31:18;25.30;91.00
6256;DHT22;3161;48.794;9.784;2023-07-31T12:33:47;25.20;91.10
6256;DHT22;3161;48.794;9.784;2023-07-31T12:36:21;25.10;91.20
6256;DHT22;3161;48.794;9.784;2023-07-31T12:38:46;25.00;91.90
6256;DHT22;3161;48.794;9.784;2023-07-31T12:41:14;24.90;91.90
6256;DHT22;3161;48.794;9.784;2023-07-31T12:43:43;24.90;91.70
6256;DHT22;3161;48.794;9.784;2023-07-31T12:46:12;24.90;91.60
6256;DHT22;3161;48.794;9.784;2023-07-31T12:48:41;24.80;91.40
6256;DHT22;3161;48.794;9.784;2023-07-31T12:51:08;24.60;91.50
6256;DHT22;3161;48.794;9.784;2023-07-31T12:53:36;24.50;91.90
6256;DHT22;3161;48.794;9.784;2023-07-31T12:56:03;24.40;91.70
6256;DHT22;3161;48.794;9.784;2023-07-31T12:58:31;24.40;92.20
6256;DHT22;3161;48.794;9.784;2023-07-31T13:01:00;24.40;92.60
6256;DHT22;3161;48.794;9.784;2023-07-31T13:03:28;24.50;93.10
6256;DHT22;3161;48.794;9.784;2023-07-31T13:05:56;24.50;93.00
6256;DHT22;3161;48.794;9.784;2023-07-31T13:08:24;24.50;93.20
6256;DHT22;3161;48.794;9.784;2023-07-31T13:10:51;24.50;93.80
6256;DHT22;3161;48.794;9.784;2023-07-31T13:13:19;24.60;94.30
6256;DHT22;3161;48.794;9.784;2023-07-31T13:15:46;24.70;94.80
6256;DHT22;3161;48.794;9.784;2023-07-31T13:18:14;24.80;93.60
6256;DHT22;3161;48.794;9.784;2023-07-31T13:20:41;24.80;93.70
6256;DHT22;3161;48.794;9.784;2023-07-31T13:23:20;24.80;93.10
6256;DHT22;3161;48.794;9.784;2023-07-31T13:25:45;24.90;92.90
6256;DHT22;3161;48.794;9.784;2023-07-31T13:28:12;24.90;92.00
6256;DHT22;3161;48.794;9.784;2023-07-31T13:30:41;24.80;92.40
6256;DHT22;3161;48.794;9.784;2023-07-31T13:33:08;24.70;92.30
6256;DHT22;3161;48.794;9.784;2023-07-31T13:35:36;24.60;94.20
6256;DHT22;3161;48.794;9.784;2023-07-31T13:38:03;24.60;93.50
6256;DHT22;3161;48.794;9.784;2023-07-31T13:40:32;24.50;93.90
6256;DHT22;3161;48.794;9.784;2023-07-31T13:42:59;24.50;93.90
6256;DHT22;3161;48.794;9.784;2023-07-31T13:45:27;24.40;92.70
6256;DHT22;3161;48.794;9.784;2023-07-31T13:47:55;24.30;93.50
6256;DHT22;3161;48.794;9.784;2023-07-31T13:50:23;24.30;94.40
6256;DHT22;3161;48.794;9.784;2023-07-31T13:52:51;24.30;93.60
6256;DHT22;3161;48.794;9.784;2023-07-31T13:55:19;24.30;94.60
6256;DHT22;3161;48.794;9.784;2023-07-31T13:57:47;24.20;95.10
6256;DHT22;3161;48.794;9.784;2023-07-31T14:00:15;24.20;94.30
6256;DHT22;3161;48.794;9.784;2023-07-31T14:02:43;24.20;95.40
6256;DHT22;3161;48.794;9.784;2023-07-31T14:05:11;24.10;94.40
6256;DHT22;3161;48.794;9.784;2023-07-31T14:07:38;24.10;93.50
6256;DHT22;3161;48.794;9.784;2023-07-31T14:10:06;24.00;94.00
6256;DHT22;3161;48.794;9.784;2023-07-31T14:12:34;24.00;95.20
6256;DHT22;3161;48.794;9.784;2023-07-31T14:15:01;23.90;94.00
6256;DHT22;3161;48.794;9.784;2023-07-31T14:17:29;23.90;94.80
6256;DHT22;3161;48.794;9.784;2023-07-31T14:19:56;23.90;94.20
6256;DHT22;3161;48.794;9.784;2023-07-31T14:22:30;23.80;94.90
6256;DHT22;3161;48.794;9.784;2023-07-31T14:25:00;23.70;94.50
6256;DHT22;3161;48.794;9.784;2023-07-31T14:27:28;23.70;94.00
6256;DHT22;3161;48.794;9.784;2023-07-31T14:29:55;23.60;94.30
6256;DHT22;3161;48.794;9.784;2023-07-31T14:32:23;23.60;94.50
6256;DHT22;3161;48.794;9.784;2023-07-31T14:34:52;23.60;94.50
6256;DHT22;3161;48.794;9.784;2023-07-31T14:37:21;23.50;94.30
6256;DHT22;3161;48.794;9.784;2023-07-31T14:39:48;23.50;94.90
6256;DHT22;3161;48.794;9.784;2023-07-31T14:42:17;23.60;95.10
6256;DHT22;3161;48.794;9.784;2023-07-31T14:44:45;23.60;94.80
6256;DHT22;3161;48.794;9.784;2023-07-31T14:47:13;23.60;96.20
6256;DHT22;3161;48.794;9.784;2023-07-31T14:49:41;23.70;95.00
6256;DHT22;3161;48.794;9.784;2023-07-31T14:52:08;23.70;94.50
6256;DHT22;3161;48.794;9.784;2023-07-31T14:54:36;23.80;94.50
6256;DHT22;3161;48.794;9.784;2023-07-31T14:57:04;23.80;94.60
6256;DHT22;3161;48.794;9.784;2023-07-31T14:59:32;23.90;94.30
6256;DHT22;3161;48.794;9.784;2023-07-31T15:01:59;23.90;94.80
6256;DHT22;3161;48.794;9.784;2023-07-31T15:04:27;24.00;94.10
6256;DHT22;3161;48.794;9.784;2023-07-31T15:06:55;24.00;94.10
6256;DHT22;3161;48.794;9.784;2023-07-31T15:09:22;24.00;94.50
6256;DHT22;3161;48.794;9.784;2023-07-31T15:11:50;24.10;94.60
6256;DHT22;3161;48.794;9.784;2023-07-31T15:14:17;24.10;94.80
6256;DHT22;3161;48.794;9.784;2023-07-31T15:16:45;24.10;94.70
6256;DHT22;3161;48.794;9.784;2023-07-31T15:19:13;24.10;94.70
6256;DHT22;3161;48.794;9.784;2023-07-31T15:21:41;24.20;94.60
6256;DHT22;3161;48.794;9.784;2023-07-31T15:24:09;24.20;94.60
6256;DHT22;3161;48.794;9.784;2023-07-31T15:26:37;24.20;95.50
6256;DHT22;3161;48.794;9.784;2023-07-31T15:29:06;24.20;95.40
6256;DHT22;3161;48.794;9.784;2023-07-31T15:31:40;24.20;95.30
6256;DHT22;3161;48.794;9.784;2023-07-31T15:34:08;24.20;95.10
6256;DHT22;3161;48.794;9.784;2023-07-31T15:36:35;24.10;95.70
6256;DHT22;3161;48.794;9.784;2023-07-31T15:39:03;24.10;95.50
6256;DHT22;3161;48.794;9.784;2023-07-31T15:41:31;24.10;94.90
6256;DHT22;3161;48.794;9.784;2023-07-31T15:43:58;24.10;95.00
6256;DHT22;3161;48.794;9.784;2023-07-31T15:46:26;24.10;94.50
6256;DHT22;3161;48.794;9.784;2023-07-31T15:48:54;24.00;94.70
6256;DHT22;3161;48.794;9.784;2023-07-31T15:51:22;24.00;94.80
6256;DHT22;3161;48.794;9.784;2023-07-31T15:53:50;24.00;95.50
6256;DHT22;3161;48.794;9.784;2023-07-31T15:56:18;24.00;94.80
6256;DHT22;3161;48.794;9.784;2023-07-31T15:58:46;24.10;95.80
6256;DHT22;3161;48.794;9.784;2023-07-31T16:01:13;24.20;95.30
6256;DHT22;3161;48.794;9.784;2023-07-31T16:03:41;24.20;95.00
6256;DHT22;3161;48.794;9.784;2023-07-31T16:06:08;24.20;94.10
6256;DHT22;3161;48.794;9.784;2023-07-31T16:08:36;24.20;94.00
6256;DHT22;3161;48.794;9.784;2023-07-31T16:11:06;24.10;94.60
6256;DHT22;3161;48.794;9.784;2023-07-31T16:13:33;24.00;94.60
6256;DHT22;3161;48.794;9.784;2023-07-31T16:16:01;24.00;94.50
6256;DHT22;3161;48.794;9.784;2023-07-31T16:18:29;24.00;94.90
6256;DHT22;3161;48.794;9.784;2023-07-31T16:20:57;24.10;93.80
6256;DHT22;3161;48.794;9.784;2023-07-31T16:23:25;24.00;94.40
6256;DHT22;3161;48.794;9.784;2023-07-31T16:25:52;24.00;94.60
6256;DHT22;3161;48.794;9.784;2023-07-31T16:28:20;24.00;94.30